createdAt,value
2022-09-23T00:01:15.727Z,87.07
2022-09-23T00:03:46.553Z,86.69
2022-09-23T00:06:16.516Z,87.17
2022-09-23T00:08:44.903Z,87.07
2022-09-23T00:11:14.949Z,88.23
2022-09-23T00:13:44.638Z,87.58
2022-09-23T00:16:15.582Z,87.59
2022-09-23T00:18:44.636Z,87.40
2022-09-23T00:21:14.371Z,88.20
2022-09-23T00:23:43.790Z,87.83
2022-09-23T00:26:13.751Z,87.96
2022-09-23T00:28:41.406Z,88.05
2022-09-23T00:31:10.857Z,87.86
2022-09-23T00:33:40.393Z,88.31
2022-09-23T00:36:11.914Z,88.28
2022-09-23T00:38:40.112Z,88.69
2022-09-23T00:41:07.870Z,89.65
2022-09-23T00:43:41.046Z,89.02
2022-09-23T00:46:10.593Z,88.29
2022-09-23T00:48:42.061Z,88.39
2022-09-23T00:51:17.699Z,88.75
2022-09-23T00:53:46.701Z,88.65
2022-09-23T00:56:15.744Z,88.81
2022-09-23T00:58:48.148Z,89.23
2022-09-23T01:01:15.831Z,89.36
2022-09-23T01:03:46.258Z,89.14
2022-09-23T01:06:15.201Z,88.90
2022-09-23T01:08:45.291Z,89.07
2022-09-23T01:11:27.964Z,88.93
2022-09-23T01:14:07.179Z,88.88
2022-09-23T01:16:41.026Z,89.02
2022-09-23T01:19:25.330Z,88.68
2022-09-23T01:22:04.868Z,89.50
2022-09-23T01:24:59.356Z,89.75
2022-09-23T01:27:42.684Z,89.53
2022-09-23T01:30:17.795Z,89.05
2022-09-23T01:32:57.276Z,89.02
2022-09-23T01:35:30.252Z,89.83
2022-09-23T01:38:08.697Z,89.73
2022-09-23T01:40:46.379Z,89.33
2022-09-23T01:43:21.083Z,89.03
2022-09-23T01:45:54.404Z,89.42
2022-09-23T01:48:27.292Z,89.84
2022-09-23T01:50:58.984Z,88.93
2022-09-23T01:53:32.883Z,89.33
2022-09-23T01:56:05.137Z,89.87
2022-09-23T01:58:39.012Z,90.04
2022-09-23T02:01:08.721Z,90.75
2022-09-23T02:03:44.879Z,90.81
2022-09-23T02:06:17.052Z,91.07
2022-09-23T02:08:50.102Z,91.07
2022-09-23T02:11:18.274Z,91.19
2022-09-23T02:13:51.221Z,91.17
2022-09-23T02:16:26.230Z,90.96
2022-09-23T02:19:00.248Z,90.30
2022-09-23T02:21:33.770Z,90.99
2022-09-23T02:24:03.345Z,90.25
2022-09-23T02:26:35.495Z,90.33
2022-09-23T02:29:17.011Z,89.78
2022-09-23T02:31:48.630Z,89.83
2022-09-23T02:34:23.260Z,90.01
2022-09-23T02:37:04.509Z,91.21
2022-09-23T02:39:42.703Z,91.09
2022-09-23T02:42:15.768Z,91.27
2022-09-23T02:44:43.564Z,91.23
2022-09-23T02:47:11.502Z,91.17
2022-09-23T02:49:40.483Z,91.46
2022-09-23T02:52:09.200Z,92.51
2022-09-23T02:54:38.204Z,91.65
2022-09-23T02:57:08.088Z,92.15
2022-09-23T02:59:37.819Z,93.16
2022-09-23T03:02:26.478Z,92.86
2022-09-23T03:05:05.084Z,92.42
2022-09-23T03:07:42.779Z,92.02
2022-09-23T03:10:20.065Z,92.62
2022-09-23T03:12:59.419Z,92.77
2022-09-23T03:15:36.381Z,92.58
2022-09-23T03:18:11.986Z,92.37
2022-09-23T03:20:46.197Z,93.11
2022-09-23T03:23:17.564Z,92.92
2022-09-23T03:25:49.091Z,93.20
2022-09-23T03:28:18.425Z,92.79
2022-09-23T03:30:46.815Z,92.40
2022-09-23T03:33:16.783Z,93.18
2022-09-23T03:36:10.602Z,92.91
2022-09-23T03:38:42.436Z,91.85
2022-09-23T03:41:12.845Z,92.34
2022-09-23T03:43:40.970Z,91.49
2022-09-23T03:46:09.071Z,91.63
2022-09-23T03:48:36.656Z,92.22
2022-09-23T03:51:20.565Z,90.97
2022-09-23T03:53:48.200Z,91.55
2022-09-23T03:56:15.796Z,90.73
2022-09-23T03:58:43.956Z,90.47
2022-09-23T04:01:11.604Z,90.36
2022-09-23T04:03:39.224Z,90.82
2022-09-23T04:06:08.548Z,90.93
2022-09-23T04:08:36.125Z,91.11
2022-09-23T04:11:04.633Z,90.76
2022-09-23T04:13:32.637Z,90.93
2022-09-23T04:16:00.292Z,91.11
2022-09-23T04:18:27.889Z,91.31
2022-09-23T04:20:59.409Z,90.18
2022-09-23T04:23:28.464Z,91.18
2022-09-23T04:25:56.138Z,91.30
2022-09-23T04:28:23.739Z,90.94
2022-09-23T04:30:51.291Z,90.90
2022-09-23T04:33:18.857Z,91.48
2022-09-23T04:35:51.216Z,91.34
2022-09-23T04:38:19.651Z,91.04
2022-09-23T04:40:49.102Z,90.95
2022-09-23T04:43:17.472Z,91.66
2022-09-23T04:45:45.565Z,90.86
2022-09-23T04:48:13.824Z,90.01
2022-09-23T04:50:41.464Z,90.21
2022-09-23T04:53:09.051Z,90.89
2022-09-23T04:55:36.605Z,90.12
2022-09-23T04:58:05.496Z,90.58
2022-09-23T05:00:33.435Z,91.07
2022-09-23T05:03:00.994Z,92.08
2022-09-23T05:05:29.647Z,91.49
2022-09-23T05:07:57.835Z,91.71
2022-09-23T05:10:25.350Z,91.96
2022-09-23T05:12:57.100Z,91.41
2022-09-23T05:15:26.476Z,90.71
2022-09-23T05:17:54.004Z,91.40
2022-09-23T05:20:21.529Z,92.14
2022-09-23T05:22:49.028Z,92.27
2022-09-23T05:25:16.851Z,92.25
2022-09-23T05:27:44.371Z,92.16
2022-09-23T05:30:12.377Z,93.07
2022-09-23T05:32:41.253Z,92.70
2022-09-23T05:35:09.500Z,91.76
2022-09-23T05:37:37.160Z,92.11
2022-09-23T05:40:05.375Z,91.63
2022-09-23T05:42:32.897Z,91.21
2022-09-23T05:45:00.377Z,90.45
2022-09-23T05:47:27.889Z,91.25
2022-09-23T05:49:59.942Z,91.16
2022-09-23T05:52:28.236Z,91.34
2022-09-23T05:54:55.725Z,91.10
2022-09-23T05:57:23.286Z,90.49
2022-09-23T05:59:50.858Z,90.92
2022-09-23T06:02:18.430Z,90.93
2022-09-23T06:04:46.032Z,90.05
2022-09-23T06:07:14.854Z,90.12
2022-09-23T06:09:42.777Z,90.53
2022-09-23T06:12:10.244Z,90.06
2022-09-23T06:14:38.328Z,89.90
2022-09-23T06:17:05.858Z,90.39
2022-09-23T06:19:33.421Z,89.88
2022-09-23T06:22:01.545Z,90.02
2022-09-23T06:24:31.718Z,89.46
2022-09-23T06:26:59.386Z,88.86
2022-09-23T06:29:26.904Z,88.62
2022-09-23T06:31:54.634Z,88.57
2022-09-23T06:34:22.212Z,89.35
2022-09-23T06:36:51.476Z,89.62
2022-09-23T06:39:18.959Z,88.97
2022-09-23T06:41:48.044Z,89.45
2022-09-23T06:44:16.152Z,88.66
2022-09-23T06:46:44.286Z,88.50
2022-09-23T06:49:12.839Z,86.82
2022-09-23T06:51:40.995Z,85.30
2022-09-23T06:54:08.920Z,85.49
2022-09-23T06:56:39.528Z,84.71
2022-09-23T06:59:12.980Z,84.31
2022-09-23T07:01:40.608Z,84.13
2022-09-23T07:04:10.074Z,83.72
2022-09-23T07:06:37.950Z,83.94
2022-09-23T07:09:07.068Z,83.32
2022-09-23T07:11:34.635Z,83.83
2022-09-23T07:14:02.185Z,83.37
2022-09-23T07:16:31.493Z,83.01
2022-09-23T07:18:59.292Z,83.00
2022-09-23T07:21:27.788Z,82.46
2022-09-23T07:23:57.892Z,82.17
2022-09-23T07:26:26.527Z,81.59
2022-09-23T07:28:56.590Z,81.87
2022-09-23T07:31:37.401Z,82.31
2022-09-23T07:34:11.626Z,81.25
2022-09-23T07:36:41.934Z,81.11
2022-09-23T07:39:11.000Z,80.86
2022-09-23T07:41:39.145Z,81.29
2022-09-23T07:44:06.699Z,81.37
2022-09-23T07:46:36.911Z,81.17
2022-09-23T07:49:05.541Z,81.85
2022-09-23T07:51:38.119Z,81.28
2022-09-23T07:54:08.613Z,80.22
2022-09-23T07:56:38.314Z,80.18
2022-09-23T07:59:08.554Z,79.58
2022-09-23T08:01:38.890Z,79.07
2022-09-23T08:04:11.205Z,79.08
2022-09-23T08:06:43.407Z,79.11
2022-09-23T08:09:11.464Z,80.75
2022-09-23T08:11:39.325Z,79.39
2022-09-23T08:14:08.538Z,79.95
2022-09-23T08:16:37.051Z,78.95
2022-09-23T08:21:33.673Z,78.64
2022-09-23T08:24:02.979Z,77.39
2022-09-23T08:26:31.441Z,75.55
2022-09-23T08:28:58.928Z,74.47
2022-09-23T08:31:26.736Z,74.26
2022-09-23T08:33:56.557Z,73.65
2022-09-23T08:36:24.309Z,74.80
2022-09-23T08:38:51.933Z,74.22
2022-09-23T08:41:31.192Z,73.74
2022-09-23T08:44:04.784Z,73.90
2022-09-23T08:46:37.536Z,73.33
2022-09-23T08:49:07.619Z,71.02
2022-09-23T08:51:42.345Z,69.68
2022-09-23T08:54:11.083Z,70.33
2022-09-23T08:56:40.783Z,70.16
2022-09-23T08:59:15.206Z,69.43
2022-09-23T09:01:45.712Z,68.93
2022-09-23T09:04:18.281Z,69.13
2022-09-23T09:06:53.893Z,68.60
2022-09-23T09:09:26.593Z,66.30
2022-09-23T09:12:01.127Z,65.62
2022-09-23T09:14:36.717Z,65.14
2022-09-23T09:17:08.016Z,65.57
2022-09-23T09:20:05.242Z,64.72
2022-09-23T09:22:44.597Z,63.28
2022-09-23T09:25:23.799Z,63.06
2022-09-23T09:27:54.150Z,61.53
2022-09-23T09:30:21.757Z,60.52
2022-09-23T09:32:56.573Z,61.12
2022-09-23T09:35:34.976Z,61.54
2022-09-23T09:38:02.750Z,60.45
2022-09-23T09:40:30.882Z,58.90
2022-09-23T09:42:59.848Z,58.33
2022-09-23T09:45:42.632Z,57.13
2022-09-23T09:48:17.577Z,57.53
2022-09-23T09:50:49.028Z,58.10
2022-09-23T09:53:22.281Z,57.29
2022-09-23T09:56:04.356Z,55.24
2022-09-23T09:58:41.551Z,54.84
2022-09-23T10:01:09.464Z,54.72
2022-09-23T10:03:42.117Z,54.80
2022-09-23T10:06:18.776Z,55.35
2022-09-23T10:09:05.747Z,56.56
2022-09-23T10:11:34.090Z,53.64
2022-09-23T10:14:09.245Z,54.44
2022-09-23T10:16:37.111Z,53.45
2022-09-23T10:19:13.153Z,53.59
2022-09-23T10:21:42.147Z,52.62
2022-09-23T10:24:22.501Z,51.79
2022-09-23T10:26:55.885Z,51.58
2022-09-23T10:29:29.687Z,50.61
2022-09-23T10:32:22.864Z,51.77
2022-09-23T10:34:54.071Z,52.28
2022-09-23T10:37:30.650Z,52.06
2022-09-23T10:40:16.293Z,50.72
2022-09-23T10:43:20.394Z,50.35
2022-09-23T10:46:08.152Z,51.04
2022-09-23T10:48:46.858Z,49.44
2022-09-23T10:51:25.994Z,50.74
2022-09-23T10:54:03.939Z,48.68
2022-09-23T10:56:36.914Z,49.54
2022-09-23T10:59:33.498Z,49.14
2022-09-23T11:02:21.338Z,49.04
2022-09-23T11:05:06.528Z,49.56
2022-09-23T11:07:39.789Z,48.94
2022-09-23T11:10:44.851Z,46.67
2022-09-23T11:13:25.189Z,45.28
2022-09-23T11:16:01.811Z,42.69
2022-09-23T11:18:45.605Z,43.39
2022-09-23T11:21:31.091Z,45.55
2022-09-23T11:24:18.638Z,45.53
2022-09-23T11:26:56.435Z,44.91
2022-09-23T11:29:53.479Z,46.10
2022-09-23T11:32:41.108Z,44.72
2022-09-23T11:35:17.665Z,43.95
2022-09-23T11:37:49.812Z,44.71
2022-09-23T11:40:22.591Z,44.98
2022-09-23T11:42:56.094Z,44.76
2022-09-23T11:45:27.794Z,44.45
2022-09-23T11:47:58.400Z,44.36
2022-09-23T11:50:33.888Z,43.99
2022-09-23T11:53:05.777Z,43.11
2022-09-23T11:55:50.418Z,41.19
2022-09-23T11:58:27.124Z,39.44
2022-09-23T12:01:01.395Z,41.04
2022-09-23T12:03:44.377Z,40.47
2022-09-23T12:06:18.594Z,40.66
2022-09-23T12:08:46.369Z,40.13
2022-09-23T12:11:25.349Z,40.42
2022-09-23T12:14:02.861Z,40.01
2022-09-23T12:16:48.530Z,39.72
2022-09-23T12:19:36.790Z,38.44
2022-09-23T12:22:30.267Z,37.20
2022-09-23T12:25:00.352Z,37.83
2022-09-23T12:27:37.053Z,37.38
2022-09-23T12:30:07.796Z,36.27
2022-09-23T12:32:35.454Z,37.52
2022-09-23T12:35:03.435Z,37.62
2022-09-23T12:37:35.472Z,35.50
2022-09-23T12:40:10.513Z,35.86
2022-09-23T12:42:44.717Z,35.74
2022-09-23T12:45:35.018Z,36.65
2022-09-23T12:48:04.211Z,35.55
2022-09-23T12:50:49.121Z,35.74
2022-09-23T12:53:52.892Z,36.20
2022-09-23T12:56:24.373Z,34.54
2022-09-23T12:59:13.881Z,33.56
2022-09-23T13:01:42.143Z,34.52
2022-09-23T13:04:52.680Z,33.30
2022-09-23T13:07:25.423Z,32.54
2022-09-23T13:09:58.105Z,34.29
2022-09-23T13:12:33.466Z,32.71
2022-09-23T13:15:06.209Z,34.38
2022-09-23T13:17:37.294Z,36.32
2022-09-23T13:20:26.439Z,35.44
2022-09-23T13:23:21.323Z,36.54
2022-09-23T13:25:51.097Z,36.08
2022-09-23T13:28:36.777Z,36.32
2022-09-23T13:31:06.327Z,37.25
2022-09-23T13:33:42.823Z,36.13
2022-09-23T13:36:16.316Z,37.41
2022-09-23T13:38:46.512Z,35.43
2022-09-23T13:41:16.924Z,35.50
2022-09-23T13:43:48.955Z,35.26
2022-09-23T13:46:19.772Z,34.24
2022-09-23T13:48:49.750Z,33.60
2022-09-23T13:51:24.489Z,34.54
2022-09-23T13:53:56.613Z,35.09
2022-09-23T13:56:25.606Z,34.70
2022-09-23T13:58:56.562Z,35.47
2022-09-23T14:01:30.909Z,35.50
2022-09-23T14:03:59.012Z,35.16
2022-09-23T14:06:28.076Z,36.36
2022-09-23T14:08:56.475Z,36.35
2022-09-23T14:11:30.532Z,35.26
2022-09-23T14:14:07.736Z,35.34
2022-09-23T14:16:38.931Z,35.69
2022-09-23T14:19:07.929Z,36.30
2022-09-23T14:21:37.412Z,37.63
2022-09-23T14:24:16.629Z,36.09
2022-09-23T14:26:47.216Z,36.31
2022-09-23T14:29:18.528Z,37.06
2022-09-23T14:31:56.586Z,37.44
2022-09-23T14:34:49.951Z,37.85
2022-09-23T14:37:48.468Z,38.33
2022-09-23T14:40:18.509Z,39.52
2022-09-23T14:42:48.770Z,40.69
2022-09-23T14:45:21.404Z,40.17
2022-09-23T14:47:52.142Z,39.52
2022-09-23T14:50:39.260Z,38.57
2022-09-23T14:53:37.668Z,37.14
2022-09-23T14:56:15.620Z,36.98
2022-09-23T14:58:50.974Z,37.02
2022-09-23T15:01:42.193Z,37.55
2022-09-23T15:04:31.274Z,37.82
2022-09-23T15:07:03.272Z,37.69
2022-09-23T15:09:34.274Z,38.20
2022-09-23T15:12:06.413Z,38.98
2022-09-23T15:14:41.226Z,40.62
2022-09-23T15:17:32.551Z,40.95
2022-09-23T15:20:02.996Z,41.65
2022-09-23T15:22:30.510Z,42.52
2022-09-23T15:25:16.067Z,43.85
2022-09-23T15:27:57.333Z,43.29
2022-09-23T15:30:25.241Z,44.04
2022-09-23T15:32:54.135Z,44.76
2022-09-23T15:35:25.507Z,46.00
2022-09-23T15:37:57.120Z,45.99
2022-09-23T15:40:27.261Z,45.25
2022-09-23T15:42:56.733Z,45.07
2022-09-23T15:45:31.067Z,45.18
2022-09-23T15:48:07.071Z,45.65
2022-09-23T15:50:35.419Z,47.78
2022-09-23T15:53:03.024Z,49.41
2022-09-23T15:55:31.504Z,51.99
2022-09-23T15:57:59.044Z,54.28
2022-09-23T16:00:26.656Z,55.83
2022-09-23T16:02:55.115Z,56.88
2022-09-23T16:05:33.369Z,56.62
2022-09-23T16:08:04.900Z,58.17
2022-09-23T16:10:35.994Z,59.36
2022-09-23T16:13:05.801Z,58.65
2022-09-23T16:15:34.422Z,59.21
2022-09-23T16:18:02.298Z,59.45
2022-09-23T16:20:31.400Z,58.94
2022-09-23T16:23:00.721Z,58.44
2022-09-23T16:25:31.833Z,59.27
2022-09-23T16:27:59.542Z,60.11
2022-09-23T16:30:29.417Z,60.94
2022-09-23T16:32:57.245Z,62.23
2022-09-23T16:35:27.837Z,60.84
2022-09-23T16:37:57.087Z,60.30
2022-09-23T16:40:25.659Z,61.04
2022-09-23T16:42:54.795Z,62.17
2022-09-23T16:45:23.281Z,61.93
2022-09-23T16:47:52.344Z,62.85
2022-09-23T16:50:22.534Z,63.68
2022-09-23T16:52:52.218Z,64.03
2022-09-23T16:55:21.868Z,64.54
2022-09-23T16:57:49.469Z,64.75
2022-09-23T17:00:35.081Z,64.84
2022-09-23T17:03:20.659Z,66.37
2022-09-23T17:05:49.233Z,65.69
2022-09-23T17:08:18.188Z,65.95
2022-09-23T17:10:56.981Z,66.28
2022-09-23T17:13:25.349Z,67.50
2022-09-23T17:15:53.200Z,68.17
2022-09-23T17:18:21.603Z,68.13
2022-09-23T17:21:02.689Z,68.75
2022-09-23T17:23:31.853Z,69.81
2022-09-23T17:26:01.099Z,69.97
2022-09-23T17:28:29.128Z,70.41
2022-09-23T17:30:58.670Z,70.44
2022-09-23T17:33:26.931Z,70.25
2022-09-23T17:35:54.730Z,70.99
2022-09-23T17:38:27.998Z,71.92
2022-09-23T17:41:00.986Z,71.76
2022-09-23T17:43:31.357Z,71.67
2022-09-23T17:46:06.092Z,71.80
2022-09-23T17:48:35.740Z,71.60
2022-09-23T17:51:05.576Z,72.43
2022-09-23T17:53:35.010Z,73.78
2022-09-23T17:56:06.059Z,73.42
2022-09-23T17:58:36.831Z,74.05
2022-09-23T18:01:05.385Z,74.64
2022-09-23T18:03:33.099Z,74.84
2022-09-23T18:06:08.761Z,74.89
2022-09-23T18:08:36.450Z,75.63
2022-09-23T18:11:12.402Z,76.02
2022-09-23T18:13:41.572Z,76.39
2022-09-23T18:16:09.360Z,76.88
2022-09-23T18:18:37.044Z,77.05
2022-09-23T18:21:05.915Z,76.41
2022-09-23T18:23:34.361Z,76.61
2022-09-23T18:26:01.950Z,77.00
2022-09-23T18:28:34.644Z,77.26
2022-09-23T18:31:04.051Z,77.41
2022-09-23T18:33:31.699Z,77.52
2022-09-23T18:36:00.155Z,78.02
2022-09-23T18:38:27.727Z,78.00
2022-09-23T18:40:57.662Z,78.23
2022-09-23T18:43:29.520Z,78.64
2022-09-23T18:46:01.990Z,78.29
2022-09-23T18:48:49.746Z,78.56
2022-09-23T18:51:18.772Z,79.14
2022-09-23T18:53:47.895Z,79.61
2022-09-23T18:56:19.083Z,79.91
2022-09-23T18:58:47.617Z,80.65
2022-09-23T19:01:16.387Z,80.44
2022-09-23T19:03:45.497Z,79.86
2022-09-23T19:06:19.308Z,80.02
2022-09-23T19:08:51.194Z,80.11
2022-09-23T19:11:19.498Z,80.32
2022-09-23T19:13:47.592Z,80.46
2022-09-23T19:16:16.812Z,80.89
2022-09-23T19:18:46.567Z,81.06
2022-09-23T19:21:15.854Z,81.23
2022-09-23T19:23:47.947Z,81.19
2022-09-23T19:26:17.774Z,82.04
2022-09-23T19:28:49.773Z,82.54
2022-09-23T19:35:18.296Z,83.23
2022-09-23T19:37:49.200Z,83.73
2022-09-23T19:40:17.051Z,83.67
2022-09-23T19:42:44.660Z,84.05
2022-09-23T19:45:12.220Z,84.20
2022-09-23T19:47:39.789Z,84.12
2022-09-23T19:50:07.915Z,84.85
2022-09-23T19:52:37.688Z,85.00
2022-09-23T19:55:06.520Z,85.10
2022-09-23T19:57:34.294Z,85.70
2022-09-23T20:00:02.326Z,85.18
2022-09-23T20:02:39.845Z,85.52
2022-09-23T20:05:10.773Z,86.08
2022-09-23T20:07:42.324Z,86.12
2022-09-23T20:10:11.243Z,86.80
2022-09-23T20:12:42.092Z,86.78
2022-09-23T20:15:10.909Z,87.01
2022-09-23T20:17:39.917Z,86.78
2022-09-23T20:20:08.843Z,87.17
2022-09-23T20:22:36.425Z,87.31
2022-09-23T20:25:07.269Z,87.45
2022-09-23T20:27:34.785Z,87.95
2022-09-23T20:30:03.056Z,87.37
2022-09-23T20:32:30.726Z,88.13
2022-09-23T20:34:58.273Z,87.79
2022-09-23T20:37:25.914Z,88.24
2022-09-23T20:39:53.563Z,88.91
2022-09-23T20:42:22.424Z,88.57
2022-09-23T20:44:49.951Z,89.04
2022-09-23T20:47:18.744Z,89.12
2022-09-23T20:49:48.747Z,88.89
2022-09-23T20:52:20.154Z,88.87
2022-09-23T20:54:51.497Z,88.88
2022-09-23T20:57:20.860Z,89.27
2022-09-23T20:59:49.882Z,89.60
2022-09-23T21:02:17.600Z,89.95
2022-09-23T21:04:45.257Z,90.16
2022-09-23T21:07:12.749Z,90.02
2022-09-23T21:09:40.278Z,89.70
2022-09-23T21:12:07.859Z,90.01
2022-09-23T21:14:35.445Z,90.01
2022-09-23T21:17:04.298Z,89.72
2022-09-23T21:19:35.078Z,89.86
2022-09-23T21:22:02.564Z,90.16
2022-09-23T21:27:17.589Z,90.25
2022-09-23T21:29:45.141Z,90.61
2022-09-23T21:32:14.008Z,90.43
2022-09-23T21:34:41.547Z,90.92
2022-09-23T21:37:09.033Z,90.31
2022-09-23T21:39:36.568Z,90.35
2022-09-23T21:42:04.333Z,90.13
2022-09-23T21:44:31.877Z,90.75
2022-09-23T21:46:59.480Z,90.79
2022-09-23T21:49:28.457Z,90.94
2022-09-23T21:51:58.841Z,90.60
2022-09-23T21:54:26.583Z,90.47
2022-09-23T21:56:54.225Z,90.89
2022-09-23T21:59:21.782Z,91.09
2022-09-23T22:01:54.007Z,91.21
2022-09-23T22:04:22.107Z,91.45
2022-09-23T22:06:51.029Z,90.80
2022-09-23T22:09:20.288Z,91.08
2022-09-23T22:12:08.488Z,91.09
2022-09-23T22:14:36.758Z,91.53
2022-09-23T22:17:05.639Z,91.40
2022-09-23T22:19:39.377Z,91.41
2022-09-23T22:22:14.388Z,91.63
2022-09-23T22:24:42.589Z,91.45
2022-09-23T22:27:11.333Z,91.08
2022-09-23T22:29:56.229Z,91.16
2022-09-23T22:32:43.213Z,91.35
2022-09-23T22:35:12.686Z,91.66
2022-09-23T22:37:41.597Z,91.40
2022-09-23T22:40:11.367Z,91.00
2022-09-23T22:42:41.458Z,91.42
2022-09-23T22:45:10.797Z,90.88
2022-09-23T22:47:40.576Z,91.13
2022-09-23T22:50:10.029Z,90.99
2022-09-23T22:52:37.741Z,91.36
2022-09-23T22:55:07.916Z,90.73
2022-09-23T22:57:36.355Z,91.15
2022-09-23T23:00:04.072Z,91.21
2022-09-23T23:02:31.793Z,91.47
2022-09-23T23:05:00.229Z,91.08
2022-09-23T23:07:27.729Z,90.89
2022-09-23T23:09:55.491Z,90.80
2022-09-23T23:12:24.340Z,90.76
2022-09-23T23:14:51.844Z,91.36
2022-09-23T23:17:19.487Z,91.57
2022-09-23T23:19:47.932Z,91.20
2022-09-23T23:22:15.437Z,91.65
2022-09-23T23:24:43.020Z,91.49
2022-09-23T23:27:10.584Z,91.57
2022-09-23T23:29:39.410Z,90.67
2022-09-23T23:32:07.569Z,90.77
2022-09-23T23:34:35.090Z,91.21
2022-09-23T23:37:02.591Z,90.34
2022-09-23T23:39:30.141Z,90.23
2022-09-23T23:41:58.900Z,90.26
2022-09-23T23:44:27.677Z,90.77
2022-09-23T23:46:56.594Z,90.58
2022-09-23T23:49:24.153Z,90.55
2022-09-23T23:51:52.043Z,90.92
2022-09-23T23:54:19.546Z,90.80
2022-09-23T23:56:47.237Z,90.60
2022-09-23T23:59:14.889Z,90.65
